HVK374 EDDH-EHRD
Flight info
| Callsign | HVK374 |
|---|---|
| Flight time | N/A |
| Altitude | 32000 |
| Route | WSN5C/05 WSN N125 BLUFA |
| Aircraft | A400/H-SDE2E3FGHIJ4J5M1RWXY/LB1D1 |
Departure
| Time | 2026-05-06 11:50 |
|---|---|
| Airport | Hamburg Helmut Schmidt Airport (EDDH) |
Arrival
| Time | N/A |
|---|---|
| Airport | Rotterdam The Hague Airport (EHRD) |
| Time | Latitude | Longitude | Altitude | Speed | Heading |
|---|---|---|---|---|---|
| 2026-05-06 11:27 | 53.62137 | 9.97936 | 48 ft | 0 kts | 317° |
| 2026-05-06 11:44 | 53.62140 | 9.97932 | 49 ft | 3 kts | 317° |
| 2026-05-06 11:45 | 53.62134 | 9.97940 | 48 ft | 4 kts | 306° |
| 2026-05-06 11:45 | 53.62130 | 9.97979 | 44 ft | 0 kts | 232° |
| 2026-05-06 11:45 | 53.62127 | 9.97974 | 44 ft | 4 kts | 231° |
| 2026-05-06 11:46 | 53.62111 | 9.97894 | 50 ft | 12 kts | 282° |
| 2026-05-06 11:46 | 53.62165 | 9.97783 | 50 ft | 13 kts | 319° |
| 2026-05-06 11:46 | 53.62204 | 9.97662 | 50 ft | 11 kts | 264° |
| 2026-05-06 11:46 | 53.62117 | 9.97459 | 49 ft | 30 kts | 229° |
| 2026-05-06 11:47 | 53.61993 | 9.97208 | 49 ft | 27 kts | 230° |
| 2026-05-06 11:47 | 53.61878 | 9.96974 | 48 ft | 25 kts | 231° |
| 2026-05-06 11:47 | 53.61769 | 9.96754 | 48 ft | 24 kts | 230° |
| 2026-05-06 11:47 | 53.61710 | 9.96635 | 47 ft | 0 kts | 230° |
| 2026-05-06 11:48 | 53.61696 | 9.96603 | 47 ft | 14 kts | 234° |
| 2026-05-06 11:48 | 53.61688 | 9.96449 | 45 ft | 13 kts | 309° |
| 2026-05-06 11:48 | 53.61712 | 9.96424 | 48 ft | 0 kts | 340° |
| 2026-05-06 11:48 | 53.61713 | 9.96424 | 48 ft | 1 kts | 340° |
| 2026-05-06 11:49 | 53.61763 | 9.96420 | 48 ft | 15 kts | 1° |
| 2026-05-06 11:49 | 53.61860 | 9.96460 | 49 ft | 14 kts | 31° |
| 2026-05-06 11:49 | 53.61963 | 9.96646 | 48 ft | 50 kts | 50° |
| 2026-05-06 11:49 | 53.62471 | 9.97648 | 54 ft | 168 kts | 49° |
| 2026-05-06 11:50 | 53.63364 | 9.99387 | 297 ft | 216 kts | 51° |
| 2026-05-06 11:50 | 53.64361 | 10.01536 | 734 ft | 248 kts | 53° |
| 2026-05-06 11:50 | 53.65413 | 10.03980 | 1506 ft | 264 kts | 54° |
| 2026-05-06 11:50 | 53.66529 | 10.06530 | 2485 ft | 274 kts | 50° |
| 2026-05-06 11:51 | 53.67869 | 10.08881 | 3567 ft | 281 kts | 41° |
| 2026-05-06 11:51 | 53.69433 | 10.10632 | 4619 ft | 262 kts | 20° |
| 2026-05-06 11:51 | 53.71150 | 10.10921 | 5221 ft | 247 kts | 348° |
| 2026-05-06 11:51 | 53.72671 | 10.09478 | 5342 ft | 261 kts | 313° |
| 2026-05-06 11:52 | 53.73563 | 10.06780 | 5162 ft | 267 kts | 290° |
| 2026-05-06 11:52 | 53.74164 | 10.03821 | 5011 ft | 266 kts | 289° |
| 2026-05-06 11:52 | 53.74687 | 10.00821 | 4998 ft | 266 kts | 282° |
| 2026-05-06 11:52 | 53.74878 | 9.97703 | 4999 ft | 266 kts | 269° |
| 2026-05-06 11:53 | 53.74590 | 9.94616 | 5001 ft | 267 kts | 253° |
| 2026-05-06 11:53 | 53.73937 | 9.91721 | 5128 ft | 268 kts | 247° |
| 2026-05-06 11:53 | 53.73189 | 9.88740 | 5885 ft | 283 kts | 248° |
| 2026-05-06 11:53 | 53.72473 | 9.85650 | 7296 ft | 278 kts | 249° |
| 2026-05-06 11:54 | 53.71773 | 9.82598 | 8766 ft | 277 kts | 249° |
| 2026-05-06 11:54 | 53.71077 | 9.79579 | 10095 ft | 281 kts | 249° |
| 2026-05-06 11:54 | 53.70340 | 9.76402 | 11233 ft | 293 kts | 249° |
| 2026-05-06 11:54 | 53.69594 | 9.73198 | 12322 ft | 301 kts | 249° |
| 2026-05-06 11:55 | 53.68816 | 9.69868 | 13458 ft | 308 kts | 249° |
| 2026-05-06 11:55 | 53.68021 | 9.66478 | 14589 ft | 314 kts | 249° |
| 2026-05-06 11:55 | 53.67212 | 9.63027 | 15704 ft | 319 kts | 248° |
| 2026-05-06 11:55 | 53.66383 | 9.59504 | 16796 ft | 325 kts | 248° |
| 2026-05-06 11:56 | 53.65549 | 9.55963 | 17859 ft | 331 kts | 248° |
| 2026-05-06 11:56 | 53.64691 | 9.52326 | 18910 ft | 336 kts | 248° |
| 2026-05-06 11:56 | 53.63817 | 9.48631 | 19940 ft | 342 kts | 248° |
| 2026-05-06 11:56 | 53.62928 | 9.44877 | 20951 ft | 347 kts | 248° |
| 2026-05-06 11:57 | 53.62023 | 9.41062 | 21918 ft | 353 kts | 248° |
| 2026-05-06 11:57 | 53.61104 | 9.37194 | 22845 ft | 358 kts | 248° |
| 2026-05-06 11:57 | 53.60168 | 9.33265 | 23740 ft | 364 kts | 248° |
| 2026-05-06 11:57 | 53.59230 | 9.29330 | 24549 ft | 368 kts | 248° |
| 2026-05-06 11:58 | 53.58267 | 9.25298 | 25318 ft | 373 kts | 248° |
| 2026-05-06 11:58 | 53.57289 | 9.21215 | 26029 ft | 378 kts | 248° |
| 2026-05-06 11:58 | 53.56295 | 9.17071 | 26700 ft | 382 kts | 248° |
| 2026-05-06 11:58 | 53.55292 | 9.12896 | 27325 ft | 386 kts | 248° |
| 2026-05-06 11:59 | 53.54279 | 9.08689 | 27912 ft | 390 kts | 248° |
| 2026-05-06 11:59 | 53.53264 | 9.04481 | 28450 ft | 394 kts | 248° |
| 2026-05-06 11:59 | 53.52225 | 9.00184 | 28975 ft | 397 kts | 248° |
| 2026-05-06 11:59 | 53.51179 | 8.95867 | 29434 ft | 401 kts | 248° |
| 2026-05-06 12:00 | 53.50123 | 8.91512 | 29880 ft | 404 kts | 248° |
| 2026-05-06 12:00 | 53.49060 | 8.87141 | 30421 ft | 404 kts | 248° |
| 2026-05-06 12:00 | 53.48356 | 8.84252 | 30815 ft | 403 kts | 248° |
| 2026-05-06 12:00 | 53.46948 | 8.78482 | 31561 ft | 400 kts | 248° |
| 2026-05-06 12:01 | 53.45887 | 8.74143 | 31914 ft | 402 kts | 248° |
| 2026-05-06 12:01 | 53.45182 | 8.71268 | 31987 ft | 403 kts | 248° |
| 2026-05-06 12:01 | 53.43045 | 8.62568 | 32000 ft | 402 kts | 248° |
| 2026-05-06 12:02 | 53.40910 | 8.53913 | 32000 ft | 401 kts | 248° |
| 2026-05-06 12:02 | 53.38780 | 8.45308 | 32000 ft | 401 kts | 248° |
| 2026-05-06 12:03 | 53.36638 | 8.36692 | 32000 ft | 401 kts | 247° |
| 2026-05-06 12:03 | 53.34485 | 8.28063 | 32000 ft | 401 kts | 247° |
| 2026-05-06 12:04 | 53.32317 | 8.19412 | 32000 ft | 401 kts | 247° |
| 2026-05-06 12:04 | 53.30166 | 8.10858 | 32000 ft | 401 kts | 247° |
| 2026-05-06 12:05 | 53.27989 | 8.02232 | 32000 ft | 401 kts | 247° |
| 2026-05-06 12:05 | 53.25810 | 7.93637 | 32000 ft | 401 kts | 247° |
| 2026-05-06 12:06 | 53.23638 | 7.85099 | 32000 ft | 401 kts | 247° |
| 2026-05-06 12:06 | 53.21444 | 7.76509 | 32000 ft | 401 kts | 247° |
| 2026-05-06 12:07 | 53.19261 | 7.67995 | 32000 ft | 401 kts | 247° |
| 2026-05-06 12:07 | 53.17055 | 7.59420 | 32000 ft | 401 kts | 247° |
| 2026-05-06 12:08 | 53.14844 | 7.50864 | 32000 ft | 401 kts | 247° |
| 2026-05-06 12:08 | 53.12636 | 7.42348 | 32000 ft | 401 kts | 246° |
| 2026-05-06 12:09 | 53.10416 | 7.33819 | 32000 ft | 401 kts | 246° |
| 2026-05-06 12:09 | 53.08200 | 7.25338 | 32000 ft | 401 kts | 246° |
| 2026-05-06 12:10 | 53.05965 | 7.16817 | 32000 ft | 401 kts | 246° |
| 2026-05-06 12:10 | 53.03737 | 7.08351 | 31460 ft | 393 kts | 246° |
| 2026-05-06 12:11 | 53.02647 | 7.04224 | 30430 ft | 398 kts | 246° |
| 2026-05-06 12:11 | 53.01521 | 6.99966 | 29313 ft | 403 kts | 246° |
| 2026-05-06 12:11 | 53.00390 | 6.95698 | 28200 ft | 406 kts | 246° |
| 2026-05-06 12:11 | 52.99259 | 6.91436 | 27141 ft | 407 kts | 246° |
| 2026-05-06 12:12 | 52.98121 | 6.87156 | 26408 ft | 399 kts | 246° |
| 2026-05-06 12:12 | 52.97016 | 6.83010 | 26070 ft | 388 kts | 246° |
| 2026-05-06 12:12 | 52.95932 | 6.78948 | 26000 ft | 383 kts | 246° |
| 2026-05-06 12:12 | 52.94854 | 6.74917 | 25999 ft | 382 kts | 246° |
| 2026-05-06 12:13 | 52.93785 | 6.70928 | 25999 ft | 382 kts | 246° |
| 2026-05-06 12:13 | 52.92705 | 6.66902 | 26000 ft | 382 kts | 246° |
| 2026-05-06 12:13 | 52.91618 | 6.62859 | 26000 ft | 381 kts | 246° |
| 2026-05-06 12:13 | 52.90547 | 6.58880 | 26000 ft | 381 kts | 246° |
| 2026-05-06 12:14 | 52.89463 | 6.54862 | 26000 ft | 381 kts | 246° |
| 2026-05-06 12:14 | 52.88376 | 6.50838 | 26000 ft | 381 kts | 246° |
| 2026-05-06 12:14 | 52.87289 | 6.46824 | 26000 ft | 381 kts | 246° |
| 2026-05-06 12:14 | 52.86203 | 6.42819 | 26000 ft | 381 kts | 246° |
| 2026-05-06 12:15 | 52.85116 | 6.38816 | 26000 ft | 381 kts | 246° |
| 2026-05-06 12:15 | 52.84000 | 6.34890 | 25998 ft | 381 kts | 241° |
| 2026-05-06 12:15 | 52.82422 | 6.31345 | 26001 ft | 382 kts | 228° |
| 2026-05-06 12:15 | 52.80573 | 6.28182 | 26000 ft | 382 kts | 225° |
| 2026-05-06 12:16 | 52.78678 | 6.25103 | 26000 ft | 382 kts | 224° |
| 2026-05-06 12:16 | 52.76804 | 6.22070 | 26000 ft | 382 kts | 225° |
| 2026-05-06 12:16 | 52.74902 | 6.18984 | 26000 ft | 382 kts | 225° |
| 2026-05-06 12:16 | 52.73009 | 6.15904 | 26000 ft | 382 kts | 225° |
| 2026-05-06 12:17 | 52.71116 | 6.12821 | 26000 ft | 382 kts | 225° |
| 2026-05-06 12:17 | 52.69221 | 6.09735 | 26000 ft | 382 kts | 225° |
| 2026-05-06 12:17 | 52.67359 | 6.06703 | 26000 ft | 382 kts | 225° |
| 2026-05-06 12:17 | 52.65466 | 6.03624 | 26000 ft | 382 kts | 225° |
| 2026-05-06 12:18 | 52.63568 | 6.00540 | 26000 ft | 382 kts | 225° |
| 2026-05-06 12:18 | 52.61679 | 5.97474 | 26000 ft | 382 kts | 225° |
| 2026-05-06 12:18 | 52.59791 | 5.94414 | 25757 ft | 375 kts | 225° |
| 2026-05-06 12:18 | 52.57935 | 5.91409 | 24823 ft | 375 kts | 225° |
| 2026-05-06 12:19 | 52.56069 | 5.88392 | 23637 ft | 383 kts | 225° |
| 2026-05-06 12:19 | 52.54154 | 5.85299 | 22581 ft | 385 kts | 225° |
| 2026-05-06 12:19 | 52.52247 | 5.82223 | 21692 ft | 381 kts | 225° |
| 2026-05-06 12:19 | 52.50376 | 5.79210 | 21144 ft | 369 kts | 225° |
| 2026-05-06 12:20 | 52.48582 | 5.76324 | 20844 ft | 352 kts | 225° |
| 2026-05-06 12:20 | 52.46864 | 5.73563 | 20397 ft | 341 kts | 225° |
| 2026-05-06 12:20 | 52.45196 | 5.70886 | 19740 ft | 339 kts | 224° |
| 2026-05-06 12:20 | 52.43512 | 5.68185 | 18932 ft | 340 kts | 224° |
| 2026-05-06 12:21 | 52.41803 | 5.65449 | 17774 ft | 349 kts | 224° |
| 2026-05-06 12:21 | 52.40028 | 5.62600 | 16311 ft | 362 kts | 225° |
| 2026-05-06 12:21 | 52.38582 | 5.59327 | 14786 ft | 340 kts | 246° |
| 2026-05-06 12:21 | 52.37981 | 5.55823 | 13296 ft | 313 kts | 259° |
| 2026-05-06 12:22 | 52.37655 | 5.52388 | 11805 ft | 299 kts | 262° |
| 2026-05-06 12:22 | 52.37372 | 5.49064 | 10295 ft | 290 kts | 262° |
| 2026-05-06 12:22 | 52.37089 | 5.45831 | 8794 ft | 283 kts | 262° |
| 2026-05-06 12:22 | 52.36805 | 5.42687 | 7306 ft | 276 kts | 261° |
| 2026-05-06 12:23 | 52.36592 | 5.39643 | 5895 ft | 268 kts | 270° |